Time;durP1;ratioP1;P1;durP2;ratioP2;P2;SDS_P1;SDS_P2;PMS_P1;PMS_P2;Temp;Humidity;BMP_temperature;BMP_pressure;BME280_temperature;BME280_humidity;BME280_pressure;Samples;Min_cycle;Max_cycle;Signal;HPM_P1;HPM_P2
2021/12/11 00:02:09;;;;;;;1.20;1.20;;;;;;;22.07;33.15;98640.17;1848876;77;28253;-72
2021/12/11 00:04:58;;;;;;;1.10;1.10;;;;;;;22.07;33.16;98645.11;1844083;77;28211;-71
2021/12/11 00:07:47;;;;;;;1.10;1.10;;;;;;;22.09;33.17;98646.22;1808363;78;28336;-73
2021/12/11 00:10:38;;;;;;;1.07;1.07;;;;;;;22.11;33.13;98635.85;1811671;78;28400;-72
2021/12/11 00:13:30;;;;;;;1.15;1.05;;;;;;;22.09;33.18;98643.48;1809393;78;28824;-73
2021/12/11 00:16:22;;;;;;;1.07;1.07;;;;;;;22.09;33.17;98645.69;1823762;78;28170;-71
2021/12/11 00:19:13;;;;;;;1.05;1.05;;;;;;;22.01;33.21;98645.56;1834181;77;28374;-72
2021/12/11 00:22:13;;;;;;;1.00;1.00;;;;;;;21.94;33.30;98638.61;1838315;77;28356;-72
2021/12/11 00:25:11;;;;;;;1.20;1.20;;;;;;;21.90;33.38;98640.20;1847204;77;28241;-72
2021/12/11 00:28:07;;;;;;;1.00;1.00;;;;;;;21.84;33.50;98635.75;1851403;76;28403;-72
2021/12/11 00:30:57;;;;;;;1.20;1.20;;;;;;;21.79;33.53;98631.00;1839550;77;28358;-72
2021/12/11 00:33:48;;;;;;;1.07;1.07;;;;;;;21.78;33.56;98641.63;1849346;77;28272;-73
2021/12/11 00:36:38;;;;;;;1.50;1.00;;;;;;;21.74;33.59;98639.11;1848280;77;28308;-73
2021/12/11 00:39:30;;;;;;;1.20;1.20;;;;;;;21.72;33.61;98645.37;1849116;77;28392;-72
2021/12/11 00:42:23;;;;;;;1.72;1.20;;;;;;;21.71;33.63;98646.44;1829910;77;28324;-72
2021/12/11 00:45:13;;;;;;;1.10;1.10;;;;;;;21.67;33.70;98663.05;1842267;77;28316;-72
2021/12/11 00:48:05;;;;;;;1.20;1.20;;;;;;;21.61;33.75;98662.66;1827106;77;28286;-72
2021/12/11 00:51:05;;;;;;;1.12;1.12;;;;;;;21.57;33.83;98661.51;1860070;76;28168;-72
2021/12/11 00:53:59;;;;;;;1.33;1.23;;;;;;;21.53;33.87;98672.66;1827279;78;28141;-72
2021/12/11 00:56:48;;;;;;;1.07;1.07;;;;;;;21.48;33.96;98668.46;1868801;76;28141;-72
2021/12/11 00:59:37;;;;;;;1.20;1.20;;;;;;;21.44;34.03;98677.41;1832441;76;28110;-73
2021/12/11 01:02:25;;;;;;;1.07;1.07;;;;;;;21.39;34.11;98676.78;1866935;76;28086;-74
2021/12/11 01:05:14;;;;;;;1.15;1.15;;;;;;;21.37;34.13;98676.20;1859180;75;28660;-73
2021/12/11 01:08:06;;;;;;;1.25;1.15;;;;;;;21.34;34.16;98677.52;1833553;78;28186;-72
2021/12/11 01:10:57;;;;;;;1.30;1.20;;;;;;;21.30;34.21;98685.09;1838260;76;28294;-72
2021/12/11 01:13:48;;;;;;;1.00;1.00;;;;;;;21.27;34.27;98686.93;1855787;76;28219;-73
2021/12/11 01:16:38;;;;;;;1.20;1.20;;;;;;;21.24;34.29;98690.14;1859497;76;28215;-72
2021/12/11 01:19:35;;;;;;;1.20;1.20;;;;;;;21.19;34.35;98690.87;1841158;76;28296;-71
2021/12/11 01:22:33;;;;;;;1.20;1.20;;;;;;;21.17;34.42;98687.57;1837170;77;28272;-71
2021/12/11 01:25:21;;;;;;;1.00;1.00;;;;;;;21.16;34.46;98698.75;1850449;76;28231;-72
2021/12/11 01:28:13;;;;;;;1.12;1.10;;;;;;;21.12;34.54;98700.31;1859139;76;28247;-72
2021/12/11 01:31:03;;;;;;;1.20;1.20;;;;;;;21.08;34.57;98706.79;1859757;76;28107;-72
2021/12/11 01:33:54;;;;;;;1.10;1.10;;;;;;;21.08;34.62;98712.25;1852524;76;28278;-72
2021/12/11 01:36:43;;;;;;;1.05;1.05;;;;;;;21.04;34.66;98721.14;1851856;76;28184;-72
2021/12/11 01:39:35;;;;;;;1.17;1.10;;;;;;;21.00;34.68;98727.64;1860674;76;28197;-72
2021/12/11 01:42:33;;;;;;;1.05;1.05;;;;;;;20.96;34.78;98737.89;1839484;76;28658;-72
2021/12/11 01:45:21;;;;;;;1.20;1.20;;;;;;;20.97;34.75;98739.56;1858388;76;28082;-72
2021/12/11 01:48:10;;;;;;;1.10;1.10;;;;;;;20.92;34.85;98746.28;1842633;76;28169;-72
2021/12/11 01:51:02;;;;;;;1.23;1.17;;;;;;;20.92;34.88;98754.47;1839963;76;28230;-72
2021/12/11 01:53:55;;;;;;;1.35;1.30;;;;;;;20.90;34.89;98755.25;1841052;76;28193;-72
2021/12/11 01:56:47;;;;;;;1.33;1.23;;;;;;;20.86;34.93;98752.72;1840858;76;28180;-74
2021/12/11 01:59:38;;;;;;;3.67;2.93;;;;;;;20.85;34.98;98757.34;1835595;76;28307;-72
2021/12/11 02:02:42;;;;;;;1.40;1.30;;;;;;;20.81;35.01;98752.60;1847608;76;28101;-72
2021/12/11 02:05:33;;;;;;;2.17;1.50;;;;;;;20.81;35.03;98762.16;1840887;76;28297;-72
2021/12/11 02:08:25;;;;;;;2.60;1.52;;;;;;;20.77;35.06;98758.25;1841988;76;30483;-72
2021/12/11 02:11:17;;;;;;;1.90;1.50;;;;;;;20.75;35.10;98767.23;1839925;76;28227;-72
2021/12/11 02:14:06;;;;;;;1.40;1.30;;;;;;;20.74;35.17;98773.73;1840396;76;28194;-72
2021/12/11 02:16:58;;;;;;;1.40;1.17;;;;;;;20.70;35.20;98782.12;1861394;76;28121;-73
2021/12/11 02:19:49;;;;;;;1.40;1.30;;;;;;;20.70;35.29;98791.67;1846443;76;28217;-71
2021/12/11 02:22:41;;;;;;;1.00;1.00;;;;;;;20.66;35.26;98794.87;1844594;76;28219;-72
2021/12/11 02:25:32;;;;;;;1.10;1.10;;;;;;;20.66;35.27;98792.66;1856414;76;28110;-72
2021/12/11 02:28:30;;;;;;;1.30;1.20;;;;;;;20.65;35.31;98794.55;1867578;76;28188;-71
2021/12/11 02:31:26;;;;;;;1.47;1.22;;;;;;;20.65;35.30;98801.38;1866802;76;28181;-72
2021/12/11 02:34:17;;;;;;;1.90;1.50;;;;;;;20.61;35.36;98806.19;1864279;76;28240;-74
2021/12/11 02:37:16;;;;;;;3.25;1.60;;;;;;;20.60;35.40;98804.02;1833703;77;28136;-74
2021/12/11 02:40:27;;;;;;;1.40;1.30;;;;;;;20.58;35.45;98812.95;1861919;76;28175;-72
2021/12/11 02:43:25;;;;;;;2.25;1.45;;;;;;;20.59;35.45;98815.15;1808227;76;28160;-71
2021/12/11 02:46:16;;;;;;;1.65;1.37;;;;;;;20.57;35.43;98818.13;1849795;76;28066;-72
2021/12/11 02:49:23;;;;;;;1.98;1.35;;;;;;;20.55;35.52;98835.27;1875405;75;28115;-72
2021/12/11 02:52:14;;;;;;;1.35;1.25;;;;;;;20.55;35.54;98827.61;1863014;75;28256;-73
2021/12/11 02:55:09;;;;;;;1.80;1.50;;;;;;;20.49;35.63;98823.92;1830861;76;28253;-74
2021/12/11 02:58:01;;;;;;;2.53;1.57;;;;;;;20.50;35.61;98824.23;1814232;78;28310;-73
2021/12/11 03:00:55;;;;;;;14.05;12.90;;;;;;;20.56;35.62;98822.47;1809740;78;28284;-73
2021/12/11 07:40:24;;;;;;;4.05;1.85;;;;;;;15.54;47.95;99167.95;1924618;72;28062;-82
2021/12/11 07:43:13;;;;;;;1.25;1.20;;;;;;;15.27;43.39;99172.77;1867589;75;28205;-84
2021/12/11 07:46:04;;;;;;;1.17;1.17;;;;;;;15.21;42.20;99167.64;1882804;75;28074;-85
2021/12/11 07:48:52;;;;;;;1.30;0.82;;;;;;;16.05;42.40;99177.97;1867169;75;28179;-85
2021/12/11 07:51:42;;;;;;;1.40;0.80;;;;;;;16.69;42.35;99171.70;1858217;75;28180;-85
2021/12/11 07:54:30;;;;;;;0.90;0.90;;;;;;;17.21;41.84;99168.60;1858019;76;28166;-85
2021/12/11 07:57:20;;;;;;;0.95;0.95;;;;;;;17.64;41.23;99166.32;1867657;75;27966;-86
2021/12/11 08:00:14;;;;;;;1.35;0.80;;;;;;;18.03;40.58;99172.23;1865616;75;28112;-86
2021/12/11 08:03:03;;;;;;;0.90;0.90;;;;;;;18.29;40.06;99175.41;1866890;75;28098;-87
2021/12/11 08:05:54;;;;;;;1.00;1.00;;;;;;;18.56;39.64;99181.08;1878848;75;28069;-84
2021/12/11 08:08:45;;;;;;;1.55;1.12;;;;;;;18.77;39.27;99188.94;1879517;75;28060;-84
2021/12/11 08:11:35;;;;;;;0.98;0.98;;;;;;;18.93;38.89;99187.58;1868035;75;28681;-84
2021/12/11 08:14:25;;;;;;;0.98;0.98;;;;;;;19.06;38.59;99196.53;1873970;75;28130;-85
2021/12/11 08:17:13;;;;;;;0.90;0.90;;;;;;;19.18;38.44;99195.30;1867640;75;28102;-85
2021/12/11 08:20:01;;;;;;;0.90;0.90;;;;;;;19.25;38.21;99195.55;1868238;75;28029;-85
2021/12/11 08:22:51;;;;;;;0.90;0.90;;;;;;;19.32;38.04;99202.33;1882545;75;27979;-86
2021/12/11 08:25:42;;;;;;;0.90;0.90;;;;;;;19.41;37.88;99207.01;1890081;75;28086;-85
2021/12/11 08:28:32;;;;;;;1.70;1.35;;;;;;;19.47;37.78;99217.84;1879062;75;28153;-74
2021/12/11 08:31:21;;;;;;;1.55;0.93;;;;;;;19.53;37.65;99216.14;1878857;75;28143;-83
2021/12/11 08:34:11;;;;;;;1.00;1.00;;;;;;;19.66;37.59;99217.39;1863882;75;28109;-80
2021/12/11 08:37:02;;;;;;;1.05;1.00;;;;;;;19.71;37.57;99221.65;1858138;76;28135;-79
2021/12/11 08:40:11;;;;;;;1.22;0.93;;;;;;;19.74;37.63;99217.94;1879027;75;28088;-77
2021/12/11 08:43:02;;;;;;;1.80;1.30;;;;;;;19.79;37.62;99226.84;1873696;75;28060;-79
2021/12/11 08:46:09;;;;;;;1.20;1.10;;;;;;;19.82;37.50;99234.55;1884233;75;28051;-80
2021/12/11 08:48:53;;;;;;;1.27;0.90;;;;;;;19.80;37.52;99240.75;1863292;76;28078;-81
2021/12/11 08:51:48;;;;;;;1.00;0.90;;;;;;;19.82;37.44;99243.56;1885948;75;28064;-80
2021/12/11 08:54:38;;;;;;;1.62;0.80;;;;;;;19.84;37.32;99249.62;1885903;74;28103;-80
2021/12/11 08:57:31;;;;;;;1.15;1.02;;;;;;;19.89;37.33;99257.13;1872676;75;32984;-80
2021/12/11 09:00:29;;;;;;;1.65;1.00;;;;;;;19.87;37.32;99272.36;1872356;75;28135;-79
2021/12/11 09:03:28;;;;;;;1.30;1.00;;;;;;;19.90;37.40;99268.35;1864530;75;28188;-80
2021/12/11 09:06:21;;;;;;;1.35;1.10;;;;;;;19.92;37.39;99279.86;1879481;75;28153;-79
2021/12/11 09:09:16;;;;;;;2.75;1.10;;;;;;;19.92;37.32;99294.34;1870060;75;28104;-81
2021/12/11 09:12:24;;;;;;;2.50;1.30;;;;;;;19.93;37.38;99301.44;1883788;75;28213;-78
2021/12/11 09:15:15;;;;;;;1.30;1.17;;;;;;;19.97;37.43;99304.05;1882971;75;28180;-78
2021/12/11 09:18:12;;;;;;;20.00;3.25;;;;;;;19.97;37.45;99301.84;1863691;75;28208;-72
2021/12/11 09:21:13;;;;;;;4.05;1.22;;;;;;;19.95;38.02;99308.05;1883170;74;28150;-73
2021/12/11 09:24:10;;;;;;;2.35;1.20;;;;;;;20.14;38.73;99313.84;1860282;75;28234;-74
2021/12/11 09:27:01;;;;;;;4.15;1.30;;;;;;;20.32;38.15;99318.05;1875788;75;28106;-74
2021/12/11 09:29:52;;;;;;;5.40;1.20;;;;;;;20.55;38.07;99329.67;1874497;75;28259;-74
2021/12/11 09:32:43;;;;;;;1.82;1.25;;;;;;;20.62;37.90;99312.18;1855708;76;28177;-77
2021/12/11 09:35:35;;;;;;;2.07;1.20;;;;;;;20.75;37.45;99326.20;1814966;77;28375;-75
2021/12/11 09:38:26;;;;;;;5.37;1.45;;;;;;;20.86;37.18;99330.09;1882562;75;28164;-74
2021/12/11 09:41:20;;;;;;;1.20;1.05;;;;;;;20.96;37.00;99333.09;1884946;75;28145;-74
2021/12/11 09:44:18;;;;;;;7.15;1.30;;;;;;;20.98;36.97;99348.20;1872821;75;28170;-75
2021/12/11 09:47:09;;;;;;;1.22;0.90;;;;;;;21.06;36.67;99330.71;1872283;75;28231;-76
2021/12/11 09:50:03;;;;;;;1.17;1.10;;;;;;;21.13;36.64;99345.13;1882977;75;28117;-74
2021/12/11 09:52:52;;;;;;;2.72;1.20;;;;;;;21.17;36.52;99339.50;1862385;76;28232;-75
2021/12/11 09:55:40;;;;;;;2.27;1.20;;;;;;;21.20;36.42;99354.07;1890153;75;28092;-75
2021/12/11 09:58:33;;;;;;;2.50;1.22;;;;;;;21.19;36.40;99358.70;1873260;75;33051;-75
2021/12/11 10:01:27;;;;;;;1.87;0.97;;;;;;;21.27;36.24;99365.75;1878789;75;28181;-75
2021/12/11 10:04:17;;;;;;;1.15;1.10;;;;;;;21.29;36.35;99363.63;1874438;75;28012;-75
2021/12/11 10:10:19;;;;;;;2.75;0.88;;;;;;;21.32;36.25;99350.88;1874028;75;28207;-75
2021/12/11 10:13:08;;;;;;;1.15;1.05;;;;;;;21.33;36.24;99353.92;1874636;75;28099;-76
2021/12/11 10:15:57;;;;;;;1.32;1.00;;;;;;;21.32;36.35;99359.08;1877983;74;28161;-75
2021/12/11 10:18:47;;;;;;;2.55;1.35;;;;;;;21.35;36.22;99351.80;1873618;75;28079;-75
2021/12/11 10:21:41;;;;;;;1.55;1.20;;;;;;;21.38;36.22;99348.58;1868598;75;28155;-75
2021/12/11 10:24:32;;;;;;;1.20;1.10;;;;;;;21.41;36.28;99350.02;1863815;75;28141;-74
2021/12/11 10:27:23;;;;;;;1.20;0.90;;;;;;;21.39;36.16;99352.99;1877162;75;28119;-74
2021/12/11 10:30:33;;;;;;;1.60;1.20;;;;;;;21.38;36.34;99357.34;1890095;75;27985;-76
2021/12/11 10:33:24;;;;;;;1.50;1.02;;;;;;;21.35;36.39;99370.36;1868457;75;28197;-77
2021/12/11 10:36:16;;;;;;;1.35;1.25;;;;;;;21.41;36.31;99364.52;1889876;75;28159;-77
2021/12/11 10:39:08;;;;;;;0.98;0.98;;;;;;;21.41;36.29;99368.63;1891621;74;28075;-75
2021/12/11 10:41:58;;;;;;;2.15;1.25;;;;;;;21.42;36.22;99381.77;1880783;75;28087;-74
2021/12/11 10:44:49;;;;;;;1.10;1.00;;;;;;;21.38;36.26;99371.80;1873233;75;28163;-74
2021/12/11 10:47:43;;;;;;;1.60;1.15;;;;;;;21.38;36.34;99371.00;1885030;75;35201;-75
2021/12/11 10:50:37;;;;;;;1.20;1.10;;;;;;;21.39;36.33;99361.72;1888365;75;28026;-74
2021/12/11 10:53:29;;;;;;;1.52;1.30;;;;;;;21.42;36.36;99369.47;1872709;74;28197;-75
2021/12/11 10:56:20;;;;;;;1.37;1.20;;;;;;;21.39;36.27;99367.18;1861670;76;28131;-75
2021/12/11 10:59:11;;;;;;;1.52;1.20;;;;;;;21.40;36.36;99366.13;1867499;75;28246;-75
2021/12/11 11:02:02;;;;;;;1.80;1.30;;;;;;;21.39;36.40;99376.22;1864204;75;28291;-75
2021/12/11 11:04:53;;;;;;;1.67;0.90;;;;;;;21.39;36.35;99389.04;1880463;75;28026;-75
2021/12/11 11:07:44;;;;;;;1.20;1.10;;;;;;;21.42;36.27;99390.80;1879976;75;28082;-75
2021/12/11 11:10:35;;;;;;;1.45;1.35;;;;;;;21.41;36.26;99403.30;1868152;75;28088;-75
2021/12/11 11:13:25;;;;;;;1.77;1.20;;;;;;;21.44;36.32;99402.33;1883816;75;28223;-75
2021/12/11 11:16:16;;;;;;;1.52;1.20;;;;;;;21.37;36.32;99397.48;1885741;75;28138;-75
2021/12/11 11:19:06;;;;;;;2.40;1.20;;;;;;;21.39;36.20;99395.88;1876941;75;28053;-74
2021/12/11 11:21:58;;;;;;;2.05;1.20;;;;;;;21.39;36.22;99397.23;1873991;75;28101;-75
2021/12/11 11:24:51;;;;;;;1.50;1.40;;;;;;;21.39;36.22;99398.61;1874402;75;28094;-75
2021/12/11 11:27:44;;;;;;;1.17;1.07;;;;;;;21.39;36.12;99402.70;1874606;75;28189;-75
2021/12/11 11:30:37;;;;;;;1.55;1.32;;;;;;;21.41;36.11;99403.30;1878178;75;28102;-75
2021/12/11 11:33:28;;;;;;;2.10;1.60;;;;;;;21.38;36.00;99405.96;1873111;75;38337;-75
2021/12/11 11:36:19;;;;;;;1.30;1.20;;;;;;;21.39;35.98;99407.64;1867462;75;28072;-76
2021/12/11 11:39:11;;;;;;;2.30;1.40;;;;;;;21.36;36.03;99403.99;1885264;75;28173;-75
2021/12/11 11:42:02;;;;;;;1.27;1.17;;;;;;;21.39;35.90;99395.34;1876041;75;28195;-76
2021/12/11 11:44:52;;;;;;;1.75;1.30;;;;;;;21.37;35.98;99392.54;1873496;75;28099;-77
2021/12/11 11:47:42;;;;;;;1.60;1.32;;;;;;;21.37;35.93;99396.11;1869959;75;28095;-77
2021/12/11 11:50:33;;;;;;;2.67;1.52;;;;;;;21.38;35.95;99398.32;1886906;75;28160;-77
2021/12/11 11:53:29;;;;;;;1.77;1.40;;;;;;;21.37;35.98;99385.19;1873451;75;28235;-74
2021/12/11 11:56:16;;;;;;;2.15;1.42;;;;;;;21.37;35.94;99396.11;1872581;75;28087;-75
2021/12/11 11:59:07;;;;;;;2.10;1.45;;;;;;;21.36;36.01;99397.16;1885937;75;28077;-75
2021/12/11 12:02:01;;;;;;;1.73;1.40;;;;;;;21.35;35.98;99391.41;1864996;75;28149;-75
2021/12/11 12:04:51;;;;;;;2.77;1.55;;;;;;;21.36;36.09;99394.43;1877181;75;28202;-75
2021/12/11 12:07:41;;;;;;;1.92;1.30;;;;;;;21.38;35.90;99396.40;1874135;75;28144;-75
2021/12/11 12:10:30;;;;;;;2.50;1.40;;;;;;;21.37;36.01;99395.27;1890039;75;28102;-75
2021/12/11 12:13:22;;;;;;;2.02;1.60;;;;;;;21.40;35.97;99388.80;1891391;75;28150;-74
2021/12/11 12:16:14;;;;;;;3.83;1.70;;;;;;;21.35;35.93;99395.52;1871681;75;28244;-75
2021/12/11 12:19:05;;;;;;;3.10;1.72;;;;;;;21.38;35.98;99403.23;1859750;75;28251;-75
2021/12/11 12:21:57;;;;;;;2.17;1.45;;;;;;;21.37;35.94;99401.58;1892342;75;28412;-75
2021/12/11 12:24:49;;;;;;;2.60;1.60;;;;;;;21.38;35.93;99390.13;1870450;75;28093;-76
2021/12/11 12:27:56;;;;;;;2.27;1.47;;;;;;;21.38;35.97;99401.05;1866627;75;28217;-76
2021/12/11 12:30:54;;;;;;;1.77;1.37;;;;;;;21.32;36.07;99396.80;1858184;76;28103;-76
2021/12/11 12:33:44;;;;;;;3.17;1.50;;;;;;;21.33;36.04;99396.28;1873014;75;28035;-77
2021/12/11 12:36:34;;;;;;;2.02;1.27;;;;;;;21.33;36.07;99388.08;1867179;75;28040;-77
2021/12/11 12:39:25;;;;;;;2.35;1.57;;;;;;;21.37;36.03;99407.04;1877752;75;28101;-76
2021/12/11 12:42:25;;;;;;;2.85;1.50;;;;;;;21.37;35.96;99399.37;1867545;75;28645;-75
2021/12/11 12:45:18;;;;;;;3.15;1.62;;;;;;;21.40;36.01;99409.85;1878341;75;28135;-77
2021/12/11 12:48:14;;;;;;;3.47;1.87;;;;;;;21.32;35.95;99401.42;1876579;75;28076;-77
2021/12/11 12:51:07;;;;;;;2.30;1.50;;;;;;;21.32;36.13;99408.25;1896857;75;28153;-77
2021/12/11 12:53:59;;;;;;;2.53;1.33;;;;;;;21.31;36.03;99415.61;1872292;75;28131;-76
2021/12/11 12:56:57;;;;;;;2.58;1.30;;;;;;;21.32;36.11;99406.89;1884234;75;28078;-76
2021/12/11 12:59:48;;;;;;;5.03;2.20;;;;;;;21.30;36.04;99426.78;1888257;75;28037;-74
2021/12/11 13:02:40;;;;;;;3.70;1.85;;;;;;;21.35;36.04;99426.94;1883198;75;28733;-75
2021/12/11 13:05:29;;;;;;;2.55;1.52;;;;;;;21.39;36.04;99424.56;1891545;75;28142;-74
2021/12/11 13:08:24;;;;;;;18.40;16.50;;;;;;;21.45;36.02;99420.38;1873029;75;28336;-76
2021/12/11 13:11:15;;;;;;;2.72;1.50;;;;;;;21.53;36.07;99426.08;1878026;75;28272;-76
2021/12/11 13:14:05;;;;;;;2.75;1.47;;;;;;;21.65;36.03;99439.28;1831831;76;28387;-77
2021/12/11 13:16:57;;;;;;;2.50;1.43;;;;;;;21.71;36.02;99450.13;1857013;76;28171;-75
2021/12/11 13:19:48;;;;;;;3.60;1.62;;;;;;;21.81;36.00;99449.05;1842197;76;28255;-76
2021/12/11 13:22:43;;;;;;;2.30;1.45;;;;;;;21.87;36.03;99441.84;1843447;76;28246;-77
2021/12/11 13:25:41;;;;;;;2.30;1.35;;;;;;;21.96;36.01;99449.50;1811405;78;28165;-74
2021/12/11 13:28:32;;;;;;;4.17;1.70;;;;;;;22.03;36.00;99452.98;1845049;76;28140;-74
2021/12/11 13:31:23;;;;;;;2.92;1.80;;;;;;;22.10;35.96;99448.77;1836075;76;30565;-75
2021/12/11 13:34:13;;;;;;;1.80;1.30;;;;;;;22.14;35.92;99449.16;1829519;76;28270;-73
2021/12/11 13:37:04;;;;;;;2.05;1.20;;;;;;;22.20;35.80;99457.79;1845281;76;28208;-75
2021/12/11 13:39:54;;;;;;;1.52;1.20;;;;;;;22.27;35.69;99459.89;1831255;77;28237;-83
2021/12/11 13:42:44;;;;;;;1.60;1.32;;;;;;;22.34;35.75;99470.21;1836879;76;28178;-84
2021/12/11 13:45:33;;;;;;;;;;;;;;;22.38;35.76;99473.61;1849895;76;28270;-85
2021/12/11 13:48:23;;;;;;;3.85;1.37;;;;;;;22.47;35.65;99468.13;1873826;76;20845;-83
2021/12/11 13:51:15;;;;;;;;;;;;;;;22.53;35.65;99472.66;1856006;76;28154;-83
2021/12/11 13:54:04;;;;;;;2.40;1.25;;;;;;;22.59;35.53;99468.16;1861123;76;31123;-81
2021/12/11 13:56:55;;;;;;;1.80;1.43;;;;;;;22.61;35.56;99466.05;1836235;76;28720;-81
2021/12/11 13:59:44;;;;;;;1.75;1.30;;;;;;;22.68;35.39;99476.36;1848237;76;28108;-84
2021/12/11 14:02:32;;;;;;;6.25;1.70;;;;;;;22.72;35.33;99477.55;1838969;76;28167;-86
2021/12/11 14:05:21;;;;;;;1.22;1.12;;;;;;;22.76;35.27;99473.25;1846348;76;28147;-87
2021/12/11 14:08:13;;;;;;;1.55;1.20;;;;;;;22.79;35.26;99482.37;1837840;76;28260;-84
2021/12/11 14:11:02;;;;;;;1.40;1.30;;;;;;;22.83;35.20;99483.56;1839945;76;28493;-84
2021/12/11 14:13:50;;;;;;;1.40;1.30;;;;;;;22.84;35.14;99483.88;1838164;76;28706;-83
2021/12/11 14:16:40;;;;;;;1.60;1.37;;;;;;;22.86;35.11;99491.84;1831359;76;28301;-86
2021/12/11 14:19:29;;;;;;;2.12;1.20;;;;;;;22.94;35.04;99496.99;1828776;76;28180;-84
2021/12/11 14:22:20;;;;;;;1.30;1.20;;;;;;;22.99;34.88;99503.94;1825715;77;28244;-83
2021/12/11 14:25:11;;;;;;;1.67;1.13;;;;;;;22.98;34.87;99504.50;1830278;76;28285;-83
2021/12/11 14:28:03;;;;;;;1.77;1.40;;;;;;;23.00;34.75;99504.25;1827514;76;28111;-85
2021/12/11 14:30:54;;;;;;;1.77;1.12;;;;;;;23.01;34.65;99508.11;1848118;76;28203;-84
2021/12/11 14:33:43;;;;;;;1.17;1.07;;;;;;;23.03;34.60;99507.37;1824525;78;28236;-83
2021/12/11 14:36:36;;;;;;;1.98;1.60;;;;;;;23.01;34.52;99521.00;1828301;76;28188;-82
2021/12/11 14:39:26;;;;;;;1.30;1.20;;;;;;;23.03;34.48;99529.28;1853344;76;28172;-79
2021/12/11 14:42:21;;;;;;;1.77;1.33;;;;;;;23.01;34.46;99528.66;1829040;76;28289;-79
2021/12/11 14:45:16;;;;;;;1.17;1.07;;;;;;;23.07;34.41;99524.15;1844777;76;28152;-81
2021/12/11 14:48:07;;;;;;;3.80;1.30;;;;;;;23.06;34.33;99534.27;1845529;76;28247;-77
2021/12/11 14:51:01;;;;;;;1.47;1.37;;;;;;;23.07;34.38;99540.06;1852817;76;28127;-78
2021/12/11 14:53:51;;;;;;;1.47;1.35;;;;;;;23.12;34.41;99544.83;1846469;76;28251;-78
2021/12/11 14:56:43;;;;;;;1.47;1.30;;;;;;;23.11;34.32;99557.69;1851264;76;28255;-82
2021/12/11 14:59:35;;;;;;;1.92;1.62;;;;;;;23.08;34.34;99565.56;1851362;76;28037;-81
2021/12/11 15:02:26;;;;;;;3.45;1.57;;;;;;;23.12;34.28;99562.64;1837971;76;28307;-80
2021/12/11 15:05:18;;;;;;;1.52;1.30;;;;;;;23.14;34.21;99565.45;1851703;76;28229;-85
2021/12/11 15:08:07;;;;;;;2.30;1.60;;;;;;;23.16;34.10;99568.78;1841957;76;28166;-84
2021/12/11 15:10:59;;;;;;;1.62;1.40;;;;;;;23.19;34.05;99572.95;1846099;76;28236;-79
2021/12/11 15:13:48;;;;;;;1.30;1.20;;;;;;;23.17;34.02;99574.58;1859956;76;28121;-80
2021/12/11 15:16:38;;;;;;;1.90;1.10;;;;;;;23.18;33.90;99572.64;1840648;76;28209;-81
2021/12/11 15:19:27;;;;;;;2.40;1.10;;;;;;;23.18;33.88;99571.27;1841923;76;28185;-82
2021/12/11 15:22:16;;;;;;;2.85;1.20;;;;;;;23.18;33.88;99563.05;1849147;76;28241;-81
2021/12/11 15:25:07;;;;;;;1.27;1.07;;;;;;;23.18;33.79;99571.27;1827371;78;28174;-82
2021/12/11 15:27:56;;;;;;;1.40;1.30;;;;;;;23.17;33.77;99566.35;1831170;76;28268;-82
2021/12/11 15:30:52;;;;;;;1.40;1.30;;;;;;;23.24;33.76;99578.56;1835970;76;28175;-82
2021/12/11 15:33:44;;;;;;;1.80;1.10;;;;;;;23.25;33.72;99586.55;1836526;76;28223;-83
2021/12/11 15:36:35;;;;;;;1.30;1.20;;;;;;;23.27;33.64;99581.66;1861107;76;28111;-82
2021/12/11 15:39:26;;;;;;;1.10;1.00;;;;;;;23.27;33.66;99592.62;1853870;76;28190;-84
2021/12/11 15:42:16;;;;;;;1.50;1.30;;;;;;;23.30;33.73;99594.05;1834594;76;28181;-83
2021/12/11 15:45:06;;;;;;;1.37;1.27;;;;;;;23.30;33.70;99590.78;1841027;76;28187;-84
2021/12/11 15:47:56;;;;;;;1.27;1.17;;;;;;;23.33;33.67;99601.28;1820260;78;28163;-82
2021/12/11 15:50:43;;;;;;;;;;;;;;;23.34;33.64;99600.72;1861095;76;28082;-83
2021/12/11 15:53:31;;;;;;;;;;;;;;;23.34;33.64;99594.74;1848037;76;20121;-82
2021/12/11 15:56:19;;;;;;;;;;;;;;;23.34;33.68;99599.35;1844635;76;20140;-83
2021/12/11 15:59:08;;;;;;;;;;;;;;;23.35;33.66;99595.06;1860620;76;20177;-84
2021/12/11 16:01:56;;;;;;;;;;;;;;;23.35;33.63;99592.84;1863882;76;20212;-82
2021/12/11 16:04:43;;;;;;;;;;;;;;;23.39;33.60;99592.66;1863017;76;20217;-83
2021/12/11 16:07:31;;;;;;;;;;;;;;;23.42;33.63;99605.06;1854124;76;22632;-83
2021/12/11 16:10:18;;;;;;;;;;;;;;;23.38;33.60;99600.04;1866902;76;23495;-83
2021/12/11 16:13:06;;;;;;;;;;;;;;;23.40;33.61;99604.47;1868833;76;20123;-84
2021/12/11 16:15:55;;;;;;;;;;;;;;;23.39;33.55;99611.84;1878760;76;20123;-85
2021/12/11 16:18:44;;;;;;;;;;;;;;;23.43;33.57;99608.11;1866617;76;20190;-83
2021/12/11 16:21:37;;;;;;;;;;;;;;;23.40;33.55;99608.05;1855153;76;20194;-82
2021/12/11 16:24:21;;;;;;;;;;;;;;;23.44;33.50;99612.50;1863173;76;20125;-82
2021/12/11 16:27:10;;;;;;;;;;;;;;;23.46;33.54;99617.21;1868326;76;20125;-83
2021/12/11 16:29:57;;;;;;;;;;;;;;;23.46;33.48;99619.95;1849577;76;20123;-82
2021/12/11 16:32:45;;;;;;;;;;;;;;;23.48;33.46;99624.12;1861055;76;23548;-83
2021/12/11 16:35:33;;;;;;;;;;;;;;;23.45;33.48;99617.77;1866516;76;21029;-82
2021/12/11 16:38:24;;;;;;;1.25;1.15;;;;;;;23.49;33.49;99634.56;1883550;74;27718;-83
2021/12/11 16:41:21;;;;;;;1.90;1.10;;;;;;;23.50;33.45;99632.95;1844408;76;28148;-82
2021/12/11 16:44:13;;;;;;;1.17;1.10;;;;;;;23.51;33.46;99640.64;1833892;76;28160;-82
2021/12/11 16:47:10;;;;;;;0.93;0.93;;;;;;;23.47;33.50;99640.30;1834517;76;28229;-81
2021/12/11 16:50:19;;;;;;;1.27;1.17;;;;;;;23.51;33.45;99639.27;1856115;76;28233;-81
2021/12/11 16:53:08;;;;;;;1.30;1.20;;;;;;;23.48;33.47;99645.25;1852712;76;28091;-81
2021/12/11 16:55:58;;;;;;;1.30;1.20;;;;;;;23.50;33.49;99649.40;1834911;76;28135;-81
2021/12/11 16:58:47;;;;;;;1.45;1.20;;;;;;;23.49;33.48;99646.38;1834301;76;28299;-83
2021/12/11 17:01:38;;;;;;;1.47;1.30;;;;;;;23.51;33.44;99652.45;1829061;76;28087;-74
2021/12/11 17:04:28;;;;;;;1.37;1.27;;;;;;;23.50;33.40;99652.70;1835667;76;28115;-91
2021/12/11 17:07:17;;;;;;;1.12;1.00;;;;;;;23.53;33.44;99652.20;1840939;76;28098;-76
2021/12/11 17:10:09;;;;;;;2.75;1.32;;;;;;;23.55;33.29;99652.27;1837729;76;28320;-80
2021/12/11 17:12:58;;;;;;;1.98;1.20;;;;;;;23.46;32.92;99669.30;1855482;76;28202;-80
2021/12/11 17:15:46;;;;;;;1.10;1.10;;;;;;;23.53;33.02;99659.06;1827265;77;28185;-80
2021/12/11 17:18:37;;;;;;;1.22;1.00;;;;;;;23.54;33.05;99664.33;1856918;76;28091;-83
2021/12/11 17:21:27;;;;;;;1.62;1.50;;;;;;;23.56;33.08;99664.92;1845013;76;28159;-77
2021/12/11 17:24:19;;;;;;;1.20;1.10;;;;;;;23.59;33.15;99677.33;1849095;76;30031;-79
2021/12/11 17:27:08;;;;;;;1.47;1.20;;;;;;;23.60;33.04;99676.23;1850442;76;28086;-74
2021/12/11 17:29:58;;;;;;;1.20;1.10;;;;;;;23.59;33.03;99684.19;1850230;76;28152;-75
2021/12/11 17:32:46;;;;;;;2.00;1.10;;;;;;;23.63;33.12;99673.03;1847511;76;28159;-74
2021/12/11 17:35:34;;;;;;;1.15;1.10;;;;;;;23.62;33.15;99683.72;1854297;76;28226;-74
2021/12/11 17:38:23;;;;;;;1.85;1.20;;;;;;;23.70;33.09;99684.20;1836350;77;28082;-79
2021/12/11 17:41:12;;;;;;;1.02;1.00;;;;;;;23.68;33.06;99678.65;1819644;77;28189;-75
2021/12/11 17:44:01;;;;;;;1.20;1.10;;;;;;;23.71;32.96;99683.67;1854430;76;28095;-74
2021/12/11 17:46:50;;;;;;;1.30;1.20;;;;;;;23.70;32.95;99684.73;1829339;76;28200;-74
2021/12/11 17:49:39;;;;;;;1.22;1.12;;;;;;;23.68;32.97;99689.62;1835683;76;28244;-74
2021/12/11 17:52:29;;;;;;;1.32;1.20;;;;;;;23.71;32.96;99697.38;1841229;76;28231;-74
2021/12/11 17:55:21;;;;;;;1.32;1.00;;;;;;;23.69;32.99;99691.27;1803556;76;28201;-75
2021/12/11 17:58:10;;;;;;;1.40;1.30;;;;;;;23.72;32.92;99690.80;1844645;76;28286;-74
2021/12/11 18:01:17;;;;;;;2.60;1.15;;;;;;;23.71;32.89;99693.27;1826134;76;38494;-74
2021/12/11 18:04:11;;;;;;;1.10;1.02;;;;;;;23.72;32.84;99690.80;1862273;76;28119;-74
2021/12/11 18:07:03;;;;;;;1.30;1.20;;;;;;;23.73;32.83;99700.19;1836102;76;28142;-73
2021/12/11 18:09:53;;;;;;;3.43;1.10;;;;;;;23.73;32.83;99700.72;1838059;76;28179;-74
2021/12/11 18:12:45;;;;;;;1.20;1.20;;;;;;;23.73;32.82;99708.42;1848466;76;28609;-74